sensor_id;sensor_type;location;lat;lon;timestamp;P1;durP1;ratioP1;P2;durP2;ratioP2
55330;SDS011;58851;42.984;20.336;2023-09-18T00:01:51;17.10;;;11.48;;
55330;SDS011;58851;42.984;20.336;2023-09-18T00:04:17;13.55;;;11.20;;
55330;SDS011;58851;42.984;20.336;2023-09-18T00:06:43;16.25;;;11.55;;
55330;SDS011;58851;42.984;20.336;2023-09-18T00:09:08;12.88;;;10.57;;
55330;SDS011;58851;42.984;20.336;2023-09-18T00:11:37;17.33;;;11.55;;
55330;SDS011;58851;42.984;20.336;2023-09-18T00:14:05;13.70;;;10.65;;
55330;SDS011;58851;42.984;20.336;2023-09-18T00:16:33;17.17;;;11.25;;
55330;SDS011;58851;42.984;20.336;2023-09-18T00:18:59;14.38;;;11.65;;
55330;SDS011;58851;42.984;20.336;2023-09-18T00:21:26;12.52;;;9.85;;
55330;SDS011;58851;42.984;20.336;2023-09-18T00:23:52;13.15;;;10.60;;
55330;SDS011;58851;42.984;20.336;2023-09-18T00:26:17;13.27;;;10.93;;
55330;SDS011;58851;42.984;20.336;2023-09-18T00:28:43;16.15;;;11.65;;
55330;SDS011;58851;42.984;20.336;2023-09-18T00:31:09;17.63;;;12.32;;
55330;SDS011;58851;42.984;20.336;2023-09-18T00:33:35;15.35;;;10.65;;
55330;SDS011;58851;42.984;20.336;2023-09-18T00:36:01;17.05;;;10.95;;
55330;SDS011;58851;42.984;20.336;2023-09-18T00:38:27;15.65;;;10.05;;
55330;SDS011;58851;42.984;20.336;2023-09-18T00:40:53;13.20;;;9.48;;
55330;SDS011;58851;42.984;20.336;2023-09-18T00:43:18;14.48;;;11.05;;
55330;SDS011;58851;42.984;20.336;2023-09-18T00:45:46;16.80;;;12.23;;
55330;SDS011;58851;42.984;20.336;2023-09-18T00:48:16;17.80;;;12.23;;
55330;SDS011;58851;42.984;20.336;2023-09-18T00:50:43;19.95;;;13.80;;
55330;SDS011;58851;42.984;20.336;2023-09-18T00:53:11;21.58;;;13.70;;
55330;SDS011;58851;42.984;20.336;2023-09-18T00:55:41;17.95;;;13.50;;
55330;SDS011;58851;42.984;20.336;2023-09-18T00:58:07;18.30;;;12.77;;
55330;SDS011;58851;42.984;20.336;2023-09-18T01:00:33;19.27;;;11.77;;
55330;SDS011;58851;42.984;20.336;2023-09-18T01:03:00;18.58;;;13.10;;
55330;SDS011;58851;42.984;20.336;2023-09-18T01:05:30;17.42;;;12.93;;
55330;SDS011;58851;42.984;20.336;2023-09-18T01:07:58;24.58;;;15.20;;
55330;SDS011;58851;42.984;20.336;2023-09-18T01:10:24;24.20;;;15.88;;
55330;SDS011;58851;42.984;20.336;2023-09-18T01:15:48;19.83;;;13.82;;
55330;SDS011;58851;42.984;20.336;2023-09-18T01:18:27;20.92;;;14.68;;
55330;SDS011;58851;42.984;20.336;2023-09-18T01:20:53;19.92;;;13.88;;
55330;SDS011;58851;42.984;20.336;2023-09-18T01:23:19;25.63;;;16.13;;
55330;SDS011;58851;42.984;20.336;2023-09-18T01:25:45;19.45;;;13.95;;
55330;SDS011;58851;42.984;20.336;2023-09-18T01:28:11;19.00;;;12.55;;
55330;SDS011;58851;42.984;20.336;2023-09-18T01:30:37;19.88;;;11.18;;
55330;SDS011;58851;42.984;20.336;2023-09-18T01:33:03;16.75;;;11.60;;
55330;SDS011;58851;42.984;20.336;2023-09-18T01:35:29;23.98;;;12.57;;
55330;SDS011;58851;42.984;20.336;2023-09-18T01:37:56;19.65;;;12.38;;
55330;SDS011;58851;42.984;20.336;2023-09-18T01:40:24;17.60;;;11.48;;
55330;SDS011;58851;42.984;20.336;2023-09-18T01:42:51;16.75;;;10.93;;
55330;SDS011;58851;42.984;20.336;2023-09-18T01:45:18;21.70;;;13.00;;
55330;SDS011;58851;42.984;20.336;2023-09-18T01:47:44;17.48;;;12.13;;
55330;SDS011;58851;42.984;20.336;2023-09-18T01:50:11;18.00;;;12.45;;
55330;SDS011;58851;42.984;20.336;2023-09-18T01:52:37;25.38;;;13.50;;
55330;SDS011;58851;42.984;20.336;2023-09-18T01:55:03;25.75;;;12.98;;
55330;SDS011;58851;42.984;20.336;2023-09-18T01:57:32;15.45;;;11.60;;
55330;SDS011;58851;42.984;20.336;2023-09-18T01:59:58;16.70;;;11.65;;
55330;SDS011;58851;42.984;20.336;2023-09-18T02:02:24;18.30;;;12.85;;
55330;SDS011;58851;42.984;20.336;2023-09-18T02:04:50;21.95;;;12.07;;
55330;SDS011;58851;42.984;20.336;2023-09-18T02:07:16;19.13;;;12.38;;
55330;SDS011;58851;42.984;20.336;2023-09-18T02:09:42;22.13;;;13.20;;
55330;SDS011;58851;42.984;20.336;2023-09-18T02:12:08;18.73;;;12.50;;
55330;SDS011;58851;42.984;20.336;2023-09-18T02:14:34;23.20;;;11.88;;
55330;SDS011;58851;42.984;20.336;2023-09-18T02:17:00;41.60;;;14.68;;
55330;SDS011;58851;42.984;20.336;2023-09-18T02:19:26;19.30;;;12.00;;
55330;SDS011;58851;42.984;20.336;2023-09-18T02:21:52;16.23;;;11.98;;
55330;SDS011;58851;42.984;20.336;2023-09-18T02:24:17;14.52;;;11.65;;
55330;SDS011;58851;42.984;20.336;2023-09-18T02:26:44;17.10;;;11.68;;
55330;SDS011;58851;42.984;20.336;2023-09-18T02:29:10;16.05;;;11.82;;
55330;SDS011;58851;42.984;20.336;2023-09-18T02:31:37;16.60;;;11.13;;
55330;SDS011;58851;42.984;20.336;2023-09-18T02:34:03;15.50;;;11.43;;
55330;SDS011;58851;42.984;20.336;2023-09-18T02:36:29;22.88;;;13.90;;
55330;SDS011;58851;42.984;20.336;2023-09-18T02:38:55;22.42;;;15.32;;
55330;SDS011;58851;42.984;20.336;2023-09-18T02:41:21;27.30;;;16.45;;
55330;SDS011;58851;42.984;20.336;2023-09-18T02:43:47;26.85;;;15.43;;
55330;SDS011;58851;42.984;20.336;2023-09-18T02:46:13;27.85;;;15.85;;
55330;SDS011;58851;42.984;20.336;2023-09-18T02:48:39;28.88;;;15.60;;
55330;SDS011;58851;42.984;20.336;2023-09-18T02:51:05;23.63;;;14.25;;
55330;SDS011;58851;42.984;20.336;2023-09-18T02:53:31;20.70;;;15.02;;
55330;SDS011;58851;42.984;20.336;2023-09-18T02:55:57;22.33;;;15.25;;
55330;SDS011;58851;42.984;20.336;2023-09-18T02:58:24;33.95;;;15.60;;
55330;SDS011;58851;42.984;20.336;2023-09-18T03:00:51;20.98;;;14.90;;
55330;SDS011;58851;42.984;20.336;2023-09-18T03:03:18;28.58;;;16.77;;
55330;SDS011;58851;42.984;20.336;2023-09-18T03:05:44;29.90;;;15.00;;
55330;SDS011;58851;42.984;20.336;2023-09-18T03:08:10;19.05;;;12.90;;
55330;SDS011;58851;42.984;20.336;2023-09-18T03:10:40;22.50;;;13.75;;
55330;SDS011;58851;42.984;20.336;2023-09-18T03:13:07;20.40;;;13.40;;
55330;SDS011;58851;42.984;20.336;2023-09-18T03:15:35;22.80;;;13.43;;
55330;SDS011;58851;42.984;20.336;2023-09-18T03:18:01;20.83;;;13.98;;
55330;SDS011;58851;42.984;20.336;2023-09-18T03:20:28;19.83;;;14.05;;
55330;SDS011;58851;42.984;20.336;2023-09-18T03:22:55;24.85;;;12.63;;
55330;SDS011;58851;42.984;20.336;2023-09-18T03:25:22;28.17;;;12.85;;
55330;SDS011;58851;42.984;20.336;2023-09-18T03:27:50;19.17;;;11.35;;
55330;SDS011;58851;42.984;20.336;2023-09-18T03:30:18;26.60;;;12.15;;
55330;SDS011;58851;42.984;20.336;2023-09-18T03:32:44;28.95;;;12.93;;
55330;SDS011;58851;42.984;20.336;2023-09-18T03:35:10;28.38;;;12.43;;
55330;SDS011;58851;42.984;20.336;2023-09-18T03:37:52;34.38;;;12.55;;
55330;SDS011;58851;42.984;20.336;2023-09-18T03:40:21;26.10;;;12.50;;
55330;SDS011;58851;42.984;20.336;2023-09-18T03:42:47;32.13;;;13.68;;
55330;SDS011;58851;42.984;20.336;2023-09-18T03:45:14;33.15;;;13.68;;
55330;SDS011;58851;42.984;20.336;2023-09-18T03:47:40;21.75;;;11.07;;
55330;SDS011;58851;42.984;20.336;2023-09-18T03:50:10;22.80;;;11.88;;
55330;SDS011;58851;42.984;20.336;2023-09-18T03:52:37;23.75;;;13.20;;
55330;SDS011;58851;42.984;20.336;2023-09-18T03:55:04;21.75;;;11.93;;
55330;SDS011;58851;42.984;20.336;2023-09-18T03:57:30;26.77;;;13.95;;
55330;SDS011;58851;42.984;20.336;2023-09-18T03:59:56;18.38;;;12.23;;
55330;SDS011;58851;42.984;20.336;2023-09-18T04:02:23;28.48;;;13.27;;
55330;SDS011;58851;42.984;20.336;2023-09-18T04:04:50;42.13;;;13.05;;
55330;SDS011;58851;42.984;20.336;2023-09-18T04:07:16;24.77;;;12.10;;
55330;SDS011;58851;42.984;20.336;2023-09-18T04:09:44;21.92;;;11.88;;
55330;SDS011;58851;42.984;20.336;2023-09-18T04:12:10;23.23;;;12.82;;
55330;SDS011;58851;42.984;20.336;2023-09-18T04:14:36;22.27;;;13.05;;
55330;SDS011;58851;42.984;20.336;2023-09-18T04:17:03;15.88;;;11.07;;
55330;SDS011;58851;42.984;20.336;2023-09-18T04:19:29;16.77;;;12.18;;
55330;SDS011;58851;42.984;20.336;2023-09-18T04:21:55;18.20;;;11.93;;
55330;SDS011;58851;42.984;20.336;2023-09-18T04:24:22;21.20;;;12.02;;
55330;SDS011;58851;42.984;20.336;2023-09-18T04:26:48;23.48;;;13.35;;
55330;SDS011;58851;42.984;20.336;2023-09-18T04:29:16;18.83;;;11.00;;
55330;SDS011;58851;42.984;20.336;2023-09-18T04:31:42;17.63;;;10.43;;
55330;SDS011;58851;42.984;20.336;2023-09-18T04:34:09;13.70;;;9.68;;
55330;SDS011;58851;42.984;20.336;2023-09-18T04:36:35;13.30;;;9.55;;
55330;SDS011;58851;42.984;20.336;2023-09-18T04:39:02;12.70;;;9.10;;
55330;SDS011;58851;42.984;20.336;2023-09-18T04:41:31;17.77;;;10.27;;
55330;SDS011;58851;42.984;20.336;2023-09-18T04:43:58;12.90;;;10.30;;
55330;SDS011;58851;42.984;20.336;2023-09-18T04:46:24;13.23;;;8.73;;
55330;SDS011;58851;42.984;20.336;2023-09-18T04:48:50;14.05;;;9.65;;
55330;SDS011;58851;42.984;20.336;2023-09-18T04:51:16;13.38;;;9.88;;
55330;SDS011;58851;42.984;20.336;2023-09-18T04:53:42;14.35;;;8.77;;
55330;SDS011;58851;42.984;20.336;2023-09-18T04:56:08;12.95;;;8.52;;
55330;SDS011;58851;42.984;20.336;2023-09-18T04:58:35;12.45;;;9.05;;
55330;SDS011;58851;42.984;20.336;2023-09-18T05:01:04;10.73;;;7.97;;
55330;SDS011;58851;42.984;20.336;2023-09-18T05:03:35;12.13;;;9.18;;
55330;SDS011;58851;42.984;20.336;2023-09-18T05:06:01;18.15;;;9.45;;
55330;SDS011;58851;42.984;20.336;2023-09-18T05:08:30;17.63;;;9.45;;
55330;SDS011;58851;42.984;20.336;2023-09-18T05:10:56;9.30;;;7.28;;
55330;SDS011;58851;42.984;20.336;2023-09-18T05:13:22;11.63;;;8.15;;
55330;SDS011;58851;42.984;20.336;2023-09-18T05:15:48;12.52;;;8.35;;
55330;SDS011;58851;42.984;20.336;2023-09-18T05:18:14;15.23;;;9.70;;
55330;SDS011;58851;42.984;20.336;2023-09-18T05:20:40;12.45;;;9.07;;
55330;SDS011;58851;42.984;20.336;2023-09-18T05:23:06;16.13;;;9.63;;
55330;SDS011;58851;42.984;20.336;2023-09-18T05:25:32;12.57;;;9.30;;
55330;SDS011;58851;42.984;20.336;2023-09-18T05:28:01;16.88;;;10.77;;
55330;SDS011;58851;42.984;20.336;2023-09-18T05:30:31;13.60;;;10.63;;
55330;SDS011;58851;42.984;20.336;2023-09-18T05:33:00;13.00;;;10.15;;
55330;SDS011;58851;42.984;20.336;2023-09-18T05:35:33;19.90;;;11.95;;
55330;SDS011;58851;42.984;20.336;2023-09-18T05:38:02;16.23;;;11.75;;
55330;SDS011;58851;42.984;20.336;2023-09-18T05:40:28;18.02;;;10.82;;
55330;SDS011;58851;42.984;20.336;2023-09-18T05:42:54;15.02;;;10.70;;
55330;SDS011;58851;42.984;20.336;2023-09-18T05:45:21;13.82;;;10.00;;
55330;SDS011;58851;42.984;20.336;2023-09-18T05:47:48;14.55;;;11.35;;
55330;SDS011;58851;42.984;20.336;2023-09-18T05:50:15;14.75;;;10.55;;
55330;SDS011;58851;42.984;20.336;2023-09-18T05:52:45;14.75;;;11.23;;
55330;SDS011;58851;42.984;20.336;2023-09-18T05:55:11;16.52;;;11.13;;
55330;SDS011;58851;42.984;20.336;2023-09-18T05:57:38;15.48;;;10.55;;
55330;SDS011;58851;42.984;20.336;2023-09-18T06:00:04;15.70;;;10.60;;
55330;SDS011;58851;42.984;20.336;2023-09-18T06:02:30;11.75;;;10.02;;
55330;SDS011;58851;42.984;20.336;2023-09-18T06:04:56;16.92;;;11.70;;
55330;SDS011;58851;42.984;20.336;2023-09-18T06:07:25;14.32;;;11.18;;
55330;SDS011;58851;42.984;20.336;2023-09-18T06:09:55;14.38;;;10.65;;
55330;SDS011;58851;42.984;20.336;2023-09-18T06:12:22;21.55;;;11.90;;
55330;SDS011;58851;42.984;20.336;2023-09-18T06:14:48;21.88;;;14.77;;
55330;SDS011;58851;42.984;20.336;2023-09-18T06:17:15;30.48;;;15.35;;
55330;SDS011;58851;42.984;20.336;2023-09-18T06:19:41;28.02;;;15.07;;
55330;SDS011;58851;42.984;20.336;2023-09-18T06:22:08;21.55;;;13.60;;
55330;SDS011;58851;42.984;20.336;2023-09-18T06:24:34;29.48;;;14.18;;
55330;SDS011;58851;42.984;20.336;2023-09-18T06:27:00;12.52;;;9.48;;
55330;SDS011;58851;42.984;20.336;2023-09-18T06:29:26;10.65;;;8.32;;
55330;SDS011;58851;42.984;20.336;2023-09-18T06:31:52;14.07;;;9.98;;
55330;SDS011;58851;42.984;20.336;2023-09-18T06:34:18;13.23;;;9.90;;
55330;SDS011;58851;42.984;20.336;2023-09-18T06:36:44;13.07;;;10.02;;
55330;SDS011;58851;42.984;20.336;2023-09-18T06:39:10;21.83;;;9.75;;
55330;SDS011;58851;42.984;20.336;2023-09-18T06:41:35;14.00;;;9.38;;
55330;SDS011;58851;42.984;20.336;2023-09-18T06:44:02;11.10;;;8.43;;
55330;SDS011;58851;42.984;20.336;2023-09-18T06:46:31;17.52;;;9.98;;
55330;SDS011;58851;42.984;20.336;2023-09-18T06:48:57;19.80;;;11.55;;
55330;SDS011;58851;42.984;20.336;2023-09-18T06:51:25;16.05;;;9.98;;
55330;SDS011;58851;42.984;20.336;2023-09-18T06:53:52;11.90;;;8.93;;
55330;SDS011;58851;42.984;20.336;2023-09-18T06:56:18;11.20;;;8.32;;
55330;SDS011;58851;42.984;20.336;2023-09-18T06:58:45;11.18;;;8.88;;
55330;SDS011;58851;42.984;20.336;2023-09-18T07:01:13;15.18;;;9.52;;
55330;SDS011;58851;42.984;20.336;2023-09-18T07:03:40;14.40;;;9.93;;
55330;SDS011;58851;42.984;20.336;2023-09-18T07:06:06;12.98;;;9.52;;
55330;SDS011;58851;42.984;20.336;2023-09-18T07:08:32;15.05;;;10.50;;
55330;SDS011;58851;42.984;20.336;2023-09-18T07:10:58;13.05;;;10.65;;
55330;SDS011;58851;42.984;20.336;2023-09-18T07:13:24;13.63;;;9.57;;
55330;SDS011;58851;42.984;20.336;2023-09-18T07:15:50;11.55;;;9.90;;
55330;SDS011;58851;42.984;20.336;2023-09-18T07:18:16;14.00;;;10.38;;
55330;SDS011;58851;42.984;20.336;2023-09-18T07:20:43;15.70;;;10.63;;
55330;SDS011;58851;42.984;20.336;2023-09-18T07:23:10;14.90;;;11.77;;
55330;SDS011;58851;42.984;20.336;2023-09-18T07:25:35;17.48;;;10.82;;
55330;SDS011;58851;42.984;20.336;2023-09-18T07:28:04;15.13;;;9.85;;
55330;SDS011;58851;42.984;20.336;2023-09-18T07:30:33;15.85;;;9.90;;
55330;SDS011;58851;42.984;20.336;2023-09-18T07:33:01;12.75;;;10.32;;
55330;SDS011;58851;42.984;20.336;2023-09-18T07:35:27;14.35;;;11.57;;
55330;SDS011;58851;42.984;20.336;2023-09-18T07:37:53;11.90;;;9.93;;
55330;SDS011;58851;42.984;20.336;2023-09-18T07:40:19;14.68;;;11.40;;
55330;SDS011;58851;42.984;20.336;2023-09-18T07:42:45;12.15;;;10.30;;
55330;SDS011;58851;42.984;20.336;2023-09-18T07:45:11;13.88;;;10.63;;
55330;SDS011;58851;42.984;20.336;2023-09-18T07:47:38;12.60;;;9.02;;
55330;SDS011;58851;42.984;20.336;2023-09-18T07:50:04;14.82;;;9.30;;
55330;SDS011;58851;42.984;20.336;2023-09-18T07:52:31;14.82;;;9.60;;
55330;SDS011;58851;42.984;20.336;2023-09-18T07:54:57;14.02;;;10.63;;
55330;SDS011;58851;42.984;20.336;2023-09-18T07:57:24;14.15;;;10.20;;
55330;SDS011;58851;42.984;20.336;2023-09-18T07:59:50;12.68;;;9.25;;
55330;SDS011;58851;42.984;20.336;2023-09-18T08:02:17;13.77;;;9.32;;
55330;SDS011;58851;42.984;20.336;2023-09-18T08:04:43;18.33;;;10.35;;
55330;SDS011;58851;42.984;20.336;2023-09-18T08:07:09;11.00;;;9.25;;
55330;SDS011;58851;42.984;20.336;2023-09-18T08:09:35;17.13;;;10.65;;
55330;SDS011;58851;42.984;20.336;2023-09-18T08:12:02;12.60;;;9.25;;
55330;SDS011;58851;42.984;20.336;2023-09-18T08:14:28;13.32;;;9.15;;
55330;SDS011;58851;42.984;20.336;2023-09-18T08:16:58;12.13;;;8.30;;
55330;SDS011;58851;42.984;20.336;2023-09-18T08:19:25;13.05;;;8.77;;
55330;SDS011;58851;42.984;20.336;2023-09-18T08:21:53;12.68;;;9.32;;
55330;SDS011;58851;42.984;20.336;2023-09-18T08:24:20;11.27;;;8.23;;
55330;SDS011;58851;42.984;20.336;2023-09-18T08:26:46;11.15;;;8.65;;
55330;SDS011;58851;42.984;20.336;2023-09-18T08:29:12;12.98;;;9.48;;
55330;SDS011;58851;42.984;20.336;2023-09-18T08:31:38;12.52;;;8.52;;
55330;SDS011;58851;42.984;20.336;2023-09-18T08:34:04;11.68;;;9.25;;
55330;SDS011;58851;42.984;20.336;2023-09-18T08:36:30;17.20;;;9.43;;
55330;SDS011;58851;42.984;20.336;2023-09-18T08:38:57;16.30;;;9.55;;
55330;SDS011;58851;42.984;20.336;2023-09-18T08:41:23;15.13;;;10.70;;
55330;SDS011;58851;42.984;20.336;2023-09-18T08:43:52;13.13;;;9.77;;
55330;SDS011;58851;42.984;20.336;2023-09-18T08:46:21;12.05;;;9.25;;
55330;SDS011;58851;42.984;20.336;2023-09-18T08:48:48;13.70;;;9.27;;
55330;SDS011;58851;42.984;20.336;2023-09-18T08:51:15;15.40;;;10.55;;
55330;SDS011;58851;42.984;20.336;2023-09-18T08:53:42;15.20;;;11.02;;
55330;SDS011;58851;42.984;20.336;2023-09-18T08:56:09;17.80;;;12.80;;
55330;SDS011;58851;42.984;20.336;2023-09-18T08:58:36;14.57;;;11.85;;
55330;SDS011;58851;42.984;20.336;2023-09-18T09:01:05;15.82;;;9.38;;
55330;SDS011;58851;42.984;20.336;2023-09-18T09:03:36;14.30;;;9.80;;
55330;SDS011;58851;42.984;20.336;2023-09-18T09:06:03;13.73;;;10.50;;
55330;SDS011;58851;42.984;20.336;2023-09-18T09:08:30;14.98;;;12.60;;
55330;SDS011;58851;42.984;20.336;2023-09-18T09:10:56;17.13;;;11.10;;
55330;SDS011;58851;42.984;20.336;2023-09-18T09:13:25;16.23;;;11.15;;
55330;SDS011;58851;42.984;20.336;2023-09-18T09:15:58;12.02;;;10.02;;
55330;SDS011;58851;42.984;20.336;2023-09-18T09:18:28;14.47;;;9.90;;
55330;SDS011;58851;42.984;20.336;2023-09-18T09:20:57;11.98;;;7.78;;
55330;SDS011;58851;42.984;20.336;2023-09-18T09:23:28;11.80;;;8.18;;
55330;SDS011;58851;42.984;20.336;2023-09-18T09:26:13;12.10;;;7.60;;
55330;SDS011;58851;42.984;20.336;2023-09-18T09:28:40;10.15;;;4.95;;
55330;SDS011;58851;42.984;20.336;2023-09-18T09:31:08;10.20;;;5.75;;
55330;SDS011;58851;42.984;20.336;2023-09-18T09:33:40;8.48;;;6.13;;
55330;SDS011;58851;42.984;20.336;2023-09-18T09:36:22;11.45;;;5.78;;
55330;SDS011;58851;42.984;20.336;2023-09-18T09:38:49;17.30;;;5.63;;
55330;SDS011;58851;42.984;20.336;2023-09-18T09:41:22;12.05;;;5.47;;
55330;SDS011;58851;42.984;20.336;2023-09-18T09:43:48;11.07;;;6.47;;
55330;SDS011;58851;42.984;20.336;2023-09-18T09:46:17;11.15;;;5.20;;
55330;SDS011;58851;42.984;20.336;2023-09-18T09:48:59;16.05;;;5.60;;
55330;SDS011;58851;42.984;20.336;2023-09-18T09:51:30;11.40;;;6.63;;
55330;SDS011;58851;42.984;20.336;2023-09-18T09:53:56;10.65;;;5.38;;
55330;SDS011;58851;42.984;20.336;2023-09-18T09:59:08;9.05;;;5.43;;
55330;SDS011;58851;42.984;20.336;2023-09-18T10:01:36;13.15;;;5.28;;
55330;SDS011;58851;42.984;20.336;2023-09-18T10:04:13;9.40;;;6.03;;
55330;SDS011;58851;42.984;20.336;2023-09-18T10:06:43;14.63;;;6.50;;
55330;SDS011;58851;42.984;20.336;2023-09-18T10:09:12;13.77;;;4.70;;
55330;SDS011;58851;42.984;20.336;2023-09-18T10:11:43;10.48;;;4.88;;
55330;SDS011;58851;42.984;20.336;2023-09-18T10:14:16;9.55;;;4.85;;
55330;SDS011;58851;42.984;20.336;2023-09-18T10:16:53;10.98;;;5.68;;
55330;SDS011;58851;42.984;20.336;2023-09-18T10:19:34;10.38;;;5.55;;
55330;SDS011;58851;42.984;20.336;2023-09-18T10:22:32;9.80;;;4.55;;
55330;SDS011;58851;42.984;20.336;2023-09-18T10:25:07;10.07;;;4.68;;
55330;SDS011;58851;42.984;20.336;2023-09-18T10:28:06;8.63;;;4.55;;
55330;SDS011;58851;42.984;20.336;2023-09-18T10:30:33;7.68;;;4.38;;
55330;SDS011;58851;42.984;20.336;2023-09-18T10:33:04;7.18;;;4.20;;
55330;SDS011;58851;42.984;20.336;2023-09-18T10:35:32;11.52;;;4.90;;
55330;SDS011;58851;42.984;20.336;2023-09-18T10:37:59;7.30;;;4.35;;
55330;SDS011;58851;42.984;20.336;2023-09-18T10:40:27;7.22;;;4.53;;
55330;SDS011;58851;42.984;20.336;2023-09-18T10:42:57;7.43;;;3.70;;
55330;SDS011;58851;42.984;20.336;2023-09-18T10:45:24;11.68;;;4.50;;
55330;SDS011;58851;42.984;20.336;2023-09-18T10:47:51;11.73;;;4.30;;
55330;SDS011;58851;42.984;20.336;2023-09-18T10:50:24;8.73;;;4.43;;
55330;SDS011;58851;42.984;20.336;2023-09-18T10:52:51;7.57;;;4.72;;
55330;SDS011;58851;42.984;20.336;2023-09-18T10:55:17;11.32;;;4.35;;
55330;SDS011;58851;42.984;20.336;2023-09-18T10:58:01;8.63;;;4.70;;
55330;SDS011;58851;42.984;20.336;2023-09-18T11:00:28;8.05;;;4.07;;
55330;SDS011;58851;42.984;20.336;2023-09-18T11:06:06;9.50;;;4.70;;
55330;SDS011;58851;42.984;20.336;2023-09-18T11:08:44;7.20;;;4.38;;
55330;SDS011;58851;42.984;20.336;2023-09-18T11:11:12;15.68;;;5.57;;
55330;SDS011;58851;42.984;20.336;2023-09-18T11:13:40;11.35;;;4.65;;
55330;SDS011;58851;42.984;20.336;2023-09-18T11:16:13;10.68;;;4.63;;
55330;SDS011;58851;42.984;20.336;2023-09-18T11:19:15;12.05;;;5.28;;
55330;SDS011;58851;42.984;20.336;2023-09-18T11:21:42;9.93;;;4.47;;
55330;SDS011;58851;42.984;20.336;2023-09-18T11:24:15;12.43;;;4.40;;
55330;SDS011;58851;42.984;20.336;2023-09-18T11:26:43;11.00;;;5.38;;
55330;SDS011;58851;42.984;20.336;2023-09-18T11:29:13;8.60;;;5.13;;
55330;SDS011;58851;42.984;20.336;2023-09-18T11:31:53;23.75;;;16.05;;
55330;SDS011;58851;42.984;20.336;2023-09-18T11:34:28;8.32;;;4.32;;
55330;SDS011;58851;42.984;20.336;2023-09-18T11:37:18;9.20;;;4.93;;
55330;SDS011;58851;42.984;20.336;2023-09-18T11:39:45;7.63;;;4.63;;
55330;SDS011;58851;42.984;20.336;2023-09-18T11:42:17;9.30;;;5.15;;
55330;SDS011;58851;42.984;20.336;2023-09-18T11:44:44;17.27;;;4.60;;
55330;SDS011;58851;42.984;20.336;2023-09-18T11:47:14;8.90;;;4.20;;
55330;SDS011;58851;42.984;20.336;2023-09-18T11:49:53;12.93;;;4.85;;
55330;SDS011;58851;42.984;20.336;2023-09-18T11:54:55;11.73;;;4.43;;
55330;SDS011;58851;42.984;20.336;2023-09-18T11:57:22;9.70;;;4.57;;
55330;SDS011;58851;42.984;20.336;2023-09-18T11:59:49;8.13;;;4.57;;
55330;SDS011;58851;42.984;20.336;2023-09-18T12:04:53;21.02;;;4.45;;
55330;SDS011;58851;42.984;20.336;2023-09-18T12:07:20;9.82;;;4.07;;
55330;SDS011;58851;42.984;20.336;2023-09-18T12:09:46;13.93;;;4.65;;
55330;SDS011;58851;42.984;20.336;2023-09-18T12:12:12;10.63;;;4.22;;
55330;SDS011;58851;42.984;20.336;2023-09-18T12:14:41;7.00;;;4.28;;
55330;SDS011;58851;42.984;20.336;2023-09-18T12:17:07;8.13;;;4.30;;
55330;SDS011;58851;42.984;20.336;2023-09-18T12:19:33;10.30;;;4.45;;
55330;SDS011;58851;42.984;20.336;2023-09-18T12:22:00;8.40;;;4.00;;
55330;SDS011;58851;42.984;20.336;2023-09-18T12:24:27;8.88;;;4.47;;
55330;SDS011;58851;42.984;20.336;2023-09-18T12:26:53;8.80;;;4.65;;
55330;SDS011;58851;42.984;20.336;2023-09-18T12:29:22;8.23;;;4.70;;
55330;SDS011;58851;42.984;20.336;2023-09-18T12:31:48;11.25;;;4.22;;
55330;SDS011;58851;42.984;20.336;2023-09-18T12:34:18;7.75;;;4.05;;
55330;SDS011;58851;42.984;20.336;2023-09-18T12:36:48;13.57;;;4.17;;
55330;SDS011;58851;42.984;20.336;2023-09-18T12:39:16;11.43;;;4.20;;
55330;SDS011;58851;42.984;20.336;2023-09-18T12:41:43;7.80;;;3.78;;
55330;SDS011;58851;42.984;20.336;2023-09-18T12:44:09;8.07;;;4.22;;
55330;SDS011;58851;42.984;20.336;2023-09-18T12:46:36;11.77;;;5.15;;
55330;SDS011;58851;42.984;20.336;2023-09-18T12:49:22;8.88;;;4.65;;
55330;SDS011;58851;42.984;20.336;2023-09-18T12:51:56;9.77;;;4.85;;
55330;SDS011;58851;42.984;20.336;2023-09-18T12:54:44;8.88;;;5.53;;
55330;SDS011;58851;42.984;20.336;2023-09-18T12:57:19;11.45;;;4.65;;
55330;SDS011;58851;42.984;20.336;2023-09-18T12:59:45;8.25;;;4.18;;
55330;SDS011;58851;42.984;20.336;2023-09-18T13:02:15;9.60;;;4.90;;
55330;SDS011;58851;42.984;20.336;2023-09-18T13:04:50;8.48;;;4.38;;
55330;SDS011;58851;42.984;20.336;2023-09-18T13:07:20;10.77;;;5.25;;
55330;SDS011;58851;42.984;20.336;2023-09-18T13:10:03;8.52;;;4.40;;
55330;SDS011;58851;42.984;20.336;2023-09-18T13:15:33;8.45;;;3.92;;
55330;SDS011;58851;42.984;20.336;2023-09-18T13:18:00;7.07;;;4.50;;
55330;SDS011;58851;42.984;20.336;2023-09-18T13:20:33;8.95;;;4.35;;
55330;SDS011;58851;42.984;20.336;2023-09-18T13:22:59;20.30;;;5.97;;
55330;SDS011;58851;42.984;20.336;2023-09-18T13:25:31;9.15;;;4.53;;
55330;SDS011;58851;42.984;20.336;2023-09-18T13:27:59;7.78;;;4.28;;
55330;SDS011;58851;42.984;20.336;2023-09-18T13:30:27;8.93;;;4.38;;
55330;SDS011;58851;42.984;20.336;2023-09-18T13:33:01;9.15;;;5.03;;
55330;SDS011;58851;42.984;20.336;2023-09-18T13:35:29;8.20;;;4.65;;
55330;SDS011;58851;42.984;20.336;2023-09-18T13:37:55;10.77;;;4.70;;
55330;SDS011;58851;42.984;20.336;2023-09-18T13:40:21;9.45;;;5.68;;
55330;SDS011;58851;42.984;20.336;2023-09-18T13:42:47;20.63;;;6.28;;
55330;SDS011;58851;42.984;20.336;2023-09-18T13:45:14;11.70;;;4.47;;
55330;SDS011;58851;42.984;20.336;2023-09-18T13:47:43;12.55;;;4.57;;
55330;SDS011;58851;42.984;20.336;2023-09-18T13:50:09;10.35;;;5.10;;
55330;SDS011;58851;42.984;20.336;2023-09-18T13:52:35;13.13;;;5.35;;
55330;SDS011;58851;42.984;20.336;2023-09-18T13:55:02;9.70;;;4.60;;
55330;SDS011;58851;42.984;20.336;2023-09-18T13:57:30;11.10;;;4.78;;
55330;SDS011;58851;42.984;20.336;2023-09-18T13:59:57;8.82;;;4.40;;
55330;SDS011;58851;42.984;20.336;2023-09-18T14:02:23;10.15;;;4.60;;
55330;SDS011;58851;42.984;20.336;2023-09-18T14:04:52;13.13;;;4.80;;
55330;SDS011;58851;42.984;20.336;2023-09-18T14:07:18;11.60;;;4.50;;
55330;SDS011;58851;42.984;20.336;2023-09-18T14:09:44;9.68;;;5.03;;
55330;SDS011;58851;42.984;20.336;2023-09-18T14:12:11;8.10;;;3.92;;
55330;SDS011;58851;42.984;20.336;2023-09-18T14:14:37;13.55;;;7.55;;
55330;SDS011;58851;42.984;20.336;2023-09-18T14:17:05;10.93;;;8.60;;
55330;SDS011;58851;42.984;20.336;2023-09-18T14:19:31;25.05;;;17.45;;
55330;SDS011;58851;42.984;20.336;2023-09-18T14:21:57;8.48;;;5.47;;
55330;SDS011;58851;42.984;20.336;2023-09-18T14:24:28;10.55;;;6.22;;
55330;SDS011;58851;42.984;20.336;2023-09-18T14:26:55;16.58;;;6.03;;
55330;SDS011;58851;42.984;20.336;2023-09-18T14:29:21;14.38;;;4.72;;
55330;SDS011;58851;42.984;20.336;2023-09-18T14:31:47;10.55;;;5.53;;
55330;SDS011;58851;42.984;20.336;2023-09-18T14:34:13;9.88;;;5.00;;
55330;SDS011;58851;42.984;20.336;2023-09-18T14:36:40;10.65;;;5.22;;
55330;SDS011;58851;42.984;20.336;2023-09-18T14:39:06;10.65;;;4.30;;
55330;SDS011;58851;42.984;20.336;2023-09-18T14:41:34;7.20;;;3.75;;